KWRL

Worland Municipal Airport

Worland, Wyoming, USA
KWRL 170539Z 1706/1806 34013KT 4SM -SN SCT018 OVC025 TEMPO 1706/1710 2SM -SN OVC013 FM171300 32010KT P6SM VCSH BKN018 OVC040 FM171600 VRB05KT P6SM SCT020 BKN050 FM172000 18006KT P6SM FEW020 FM180100 17007KT P6SM SKC
Issued Valid From Valid To
Nov-17 @ 05:39 UTC
(3 hours ago)
Nov-17 @ 06:00 UTC
(3 hours ago)
Nov-18 @ 06:00 UTC
(in 21 hours)
Nov-17 @ 06:00 to Nov-17 @ 13:00
KWRL 170539Z 1706/1806 34013KT 4SM -SN SCT018 OVC025
Wind Visibility Clouds Conditions
340° at 13 knots 4 miles
  • Scattered at 1,800' AGL
  • Overcast at 2,500' AGL
  • Light Snow
Temporary Nov-17 @ 06:00 to Nov-17 @ 10:00
TEMPO 1706/1710 2SM -SN OVC013
Visibility Clouds Conditions
2 miles
  • Overcast at 1,300' AGL
  • Light Snow
From Nov-17 @ 13:00 to Nov-17 @ 16:00
FM171300 32010KT P6SM VCSH BKN018 OVC040
Wind Visibility Clouds
320° at 10 knots Greater than 6 miles
  • Broken at 1,800' AGL
  • Overcast at 4,000' AGL
From Nov-17 @ 16:00 to Nov-17 @ 20:00
FM171600 VRB05KT P6SM SCT020 BKN050
Wind Visibility Clouds
Variable at 5 knots Greater than 6 miles
  • Scattered at 2,000' AGL
  • Broken at 5,000' AGL
From Nov-17 @ 20:00 to Nov-18 @ 01:00
FM172000 18006KT P6SM FEW020
Wind Visibility Clouds
180° at 6 knots Greater than 6 miles
  • Few at 2,000' AGL
From Nov-18 @ 01:00 to Nov-18 @ 06:00
FM180100 17007KT P6SM SKC
Wind Visibility Clouds
170° at 7 knots Greater than 6 miles
  • Clear skies
KWRL 170539Z 1706/1806 34013KT 4SM -SN SCT018 OVC025 TEMPO 1706/1710 2SM -SN OVC013 FM171300 32010KT P6SM VCSH BKN018 OVC040 FM171600 VRB05KT P6SM SCT020 BKN050 FM172000 18006KT P6SM FEW020 FM180100 17007KT P6SM SKC
Issued Nov-17 @ 05:39 UTC
(3 hours ago)
Valid From Nov-17 @ 06:00 UTC
(3 hours ago)
Valid To Nov-18 @ 06:00 UTC
(in 21 hours)
Nov-17 @ 06:00 - Nov-17 @ 13:00
Wind Visibility
340° at 13 knots 4 miles
Clouds
  • Scattered at 1,800' AGL
  • Overcast at 2,500' AGL
Conditions
  • Light Snow
Temporary Nov-17 @ 06:00 - Nov-17 @ 10:00
Clouds
  • Overcast at 1,300' AGL
Conditions
  • Light Snow
From Nov-17 @ 13:00 - Nov-17 @ 16:00
Wind Visibility
320° at 10 knots Greater than 6 miles
Clouds
  • Broken at 1,800' AGL
  • Overcast at 4,000' AGL
From Nov-17 @ 16:00 - Nov-17 @ 20:00
Wind Visibility
Variable at 5 knots Greater than 6 miles
Clouds
  • Scattered at 2,000' AGL
  • Broken at 5,000' AGL
From Nov-17 @ 20:00 - Nov-18 @ 01:00
Wind Visibility
180° at 6 knots Greater than 6 miles
Clouds
  • Few at 2,000' AGL
From Nov-18 @ 01:00 - Nov-18 @ 06:00
Wind Visibility
170° at 7 knots Greater than 6 miles
Clouds
  • Clear skies